createdAt,value
2022-10-14T00:00:30.125Z,89.90
2022-10-14T00:02:20.612Z,89.90
2022-10-14T00:04:11.177Z,89.90
2022-10-14T00:06:04.914Z,89.90
2022-10-14T00:07:55.462Z,89.90
2022-10-14T00:09:47.501Z,89.90
2022-10-14T00:11:38.261Z,89.90
2022-10-14T00:13:28.582Z,89.90
2022-10-14T00:15:19.033Z,89.50
2022-10-14T00:17:09.436Z,89.90
2022-10-14T00:19:00.130Z,89.90
2022-10-14T00:20:54.459Z,89.90
2022-10-14T00:22:44.686Z,89.90
2022-10-14T00:24:35.209Z,89.90
2022-10-14T00:26:28.957Z,89.90
2022-10-14T00:28:19.636Z,89.90
2022-10-14T00:30:11.227Z,89.90
2022-10-14T00:32:02.059Z,89.90
2022-10-14T00:33:52.994Z,89.90
2022-10-14T00:35:43.573Z,89.90
2022-10-14T00:37:34.704Z,89.90
2022-10-14T00:39:25.217Z,89.90
2022-10-14T00:41:19.781Z,89.90
2022-10-14T00:43:12.547Z,89.90
2022-10-14T00:45:12.232Z,89.90
2022-10-14T00:47:02.810Z,89.90
2022-10-14T00:48:53.923Z,89.90
2022-10-14T00:50:45.754Z,89.90
2022-10-14T00:52:36.681Z,89.90
2022-10-14T00:54:32.161Z,89.90
2022-10-14T00:56:27.498Z,89.90
2022-10-14T00:58:19.671Z,89.90
2022-10-14T01:00:11.342Z,89.90
2022-10-14T01:02:02.121Z,89.90
2022-10-14T01:03:52.737Z,89.90
2022-10-14T01:05:49.557Z,89.90
2022-10-14T01:07:45.747Z,89.90
2022-10-14T01:09:39.979Z,89.90
2022-10-14T01:11:34.649Z,89.90
2022-10-14T01:13:31.288Z,89.90
2022-10-14T01:15:29.243Z,89.90
2022-10-14T01:17:30.666Z,89.90
2022-10-14T01:19:37.736Z,89.90
2022-10-14T01:21:33.821Z,89.90
2022-10-14T01:23:40.633Z,89.90
2022-10-14T01:25:34.637Z,89.90
2022-10-14T01:27:40.031Z,89.90
2022-10-14T01:30:08.541Z,89.90
2022-10-14T01:32:02.809Z,89.90
2022-10-14T01:33:57.022Z,89.90
2022-10-14T01:35:57.296Z,89.90
2022-10-14T01:37:52.585Z,89.90
2022-10-14T01:39:45.212Z,89.90
2022-10-14T01:41:38.877Z,89.90
2022-10-14T01:43:31.357Z,89.90
2022-10-14T01:45:23.919Z,89.90
2022-10-14T01:47:17.969Z,89.90
2022-10-14T01:49:12.177Z,89.90
2022-10-14T01:51:06.372Z,89.90
2022-10-14T01:53:00.741Z,89.90
2022-10-14T01:54:53.504Z,89.90
2022-10-14T01:56:45.634Z,89.90
2022-10-14T01:58:36.517Z,89.90
2022-10-14T02:00:28.749Z,89.90
2022-10-14T02:02:19.617Z,89.90
2022-10-14T02:04:15.124Z,89.90
2022-10-14T02:06:08.589Z,89.90
2022-10-14T02:08:04.585Z,89.90
2022-10-14T02:10:01.692Z,89.90
2022-10-14T02:11:59.253Z,89.90
2022-10-14T02:14:04.317Z,89.90
2022-10-14T02:16:01.923Z,89.90
2022-10-14T02:17:55.692Z,89.90
2022-10-14T02:19:50.398Z,89.90
2022-10-14T02:21:44.279Z,89.90
2022-10-14T02:23:38.220Z,89.90
2022-10-14T02:25:31.805Z,89.90
2022-10-14T02:27:25.243Z,89.90
2022-10-14T02:29:16.425Z,89.90
2022-10-14T02:31:12.326Z,89.90
2022-10-14T02:33:03.657Z,89.90
2022-10-14T02:34:54.970Z,89.90
2022-10-14T02:36:46.530Z,89.90
2022-10-14T02:38:37.769Z,89.90
2022-10-14T02:40:33.237Z,89.90
2022-10-14T02:42:24.219Z,89.90
2022-10-14T02:44:15.198Z,89.90
2022-10-14T02:46:06.387Z,89.90
2022-10-14T02:47:57.968Z,89.90
2022-10-14T02:49:48.644Z,89.90
2022-10-14T02:51:39.396Z,89.90
2022-10-14T02:53:30.180Z,89.90
2022-10-14T02:55:21.389Z,89.90
2022-10-14T02:57:12.055Z,89.90
2022-10-14T02:59:02.951Z,89.90
2022-10-14T03:00:53.611Z,89.90
2022-10-14T03:02:44.065Z,89.90
2022-10-14T03:04:36.400Z,89.90
2022-10-14T03:06:26.864Z,89.90
2022-10-14T03:08:17.692Z,89.90
2022-10-14T03:10:08.905Z,89.90
2022-10-14T03:11:59.578Z,89.90
2022-10-14T03:13:50.340Z,89.90
2022-10-14T03:15:41.341Z,89.90
2022-10-14T03:17:31.769Z,89.90
2022-10-14T03:19:22.317Z,89.90
2022-10-14T03:21:14.360Z,89.90
2022-10-14T03:23:04.960Z,89.90
2022-10-14T03:24:55.433Z,89.90
2022-10-14T03:26:45.903Z,89.90
2022-10-14T03:28:36.383Z,89.90
2022-10-14T03:30:27.097Z,89.90
2022-10-14T03:32:17.553Z,89.90
2022-10-14T03:34:08.053Z,89.90
2022-10-14T03:35:58.762Z,89.90
2022-10-14T03:37:50.544Z,89.90
2022-10-14T03:39:40.844Z,89.90
2022-10-14T03:41:33.017Z,89.90
2022-10-14T03:43:23.805Z,89.90
2022-10-14T03:45:14.447Z,89.90
2022-10-14T03:47:05.191Z,89.90
2022-10-14T03:48:55.784Z,89.90
2022-10-14T03:50:47.207Z,89.90
2022-10-14T03:52:38.155Z,89.90
2022-10-14T03:54:29.854Z,89.90
2022-10-14T03:56:20.664Z,89.90
2022-10-14T03:58:12.200Z,89.90
2022-10-14T04:00:02.663Z,89.90
2022-10-14T04:01:53.401Z,89.90
2022-10-14T04:03:43.896Z,89.90
2022-10-14T04:05:34.764Z,89.90
2022-10-14T04:07:25.564Z,89.90
2022-10-14T04:09:16.818Z,89.90
2022-10-14T04:11:09.332Z,89.90
2022-10-14T04:12:59.714Z,89.90
2022-10-14T04:14:50.688Z,89.90
2022-10-14T04:16:43.100Z,89.90
2022-10-14T04:18:35.327Z,89.90
2022-10-14T04:20:26.281Z,89.90
2022-10-14T04:22:16.942Z,89.90
2022-10-14T04:24:08.632Z,89.90
2022-10-14T04:25:59.452Z,89.90
2022-10-14T04:27:51.854Z,89.90
2022-10-14T04:29:42.230Z,89.90
2022-10-14T04:31:32.605Z,89.90
2022-10-14T04:33:23.170Z,89.90
2022-10-14T04:35:13.800Z,89.90
2022-10-14T04:37:04.222Z,89.90
2022-10-14T04:38:54.522Z,89.90
2022-10-14T04:40:45.278Z,89.90
2022-10-14T04:42:36.069Z,89.90
2022-10-14T04:44:27.969Z,89.90
2022-10-14T04:46:18.289Z,89.90
2022-10-14T04:48:08.647Z,89.90
2022-10-14T04:49:59.143Z,89.90
2022-10-14T04:51:49.711Z,89.90
2022-10-14T04:53:40.148Z,89.90
2022-10-14T04:55:30.703Z,89.90
2022-10-14T04:57:21.335Z,89.90
2022-10-14T04:59:12.316Z,89.90
2022-10-14T05:01:04.309Z,89.90
2022-10-14T05:02:54.639Z,89.90
2022-10-14T05:04:45.568Z,89.90
2022-10-14T05:06:36.483Z,89.90
2022-10-14T05:08:26.889Z,89.90
2022-10-14T05:10:17.649Z,89.90
2022-10-14T05:12:08.469Z,89.90
2022-10-14T05:13:59.357Z,89.90
2022-10-14T05:15:49.835Z,89.90
2022-10-14T05:17:41.615Z,89.90
2022-10-14T05:19:32.057Z,89.90
2022-10-14T05:21:23.265Z,89.90
2022-10-14T05:23:13.948Z,89.90
2022-10-14T05:25:04.711Z,89.90
2022-10-14T05:26:55.166Z,89.90
2022-10-14T05:28:46.358Z,89.90
2022-10-14T05:30:36.784Z,89.90
2022-10-14T05:32:29.277Z,89.90
2022-10-14T05:34:21.019Z,89.90
2022-10-14T05:36:11.679Z,89.90
2022-10-14T05:38:04.317Z,89.90
2022-10-14T05:39:55.357Z,89.90
2022-10-14T05:41:45.639Z,89.90
2022-10-14T05:43:35.980Z,89.90
2022-10-14T05:45:26.696Z,89.90
2022-10-14T05:47:17.356Z,89.90
2022-10-14T05:49:07.693Z,89.90
2022-10-14T05:50:59.681Z,89.90
2022-10-14T05:52:50.546Z,89.90
2022-10-14T05:54:41.781Z,89.90
2022-10-14T05:56:32.628Z,89.90
2022-10-14T05:58:23.730Z,89.90
2022-10-14T06:00:15.442Z,89.90
2022-10-14T06:02:05.934Z,89.90
2022-10-14T06:03:56.735Z,89.90
2022-10-14T06:05:47.124Z,89.90
2022-10-14T06:07:39.464Z,89.90
2022-10-14T06:09:30.718Z,89.90
2022-10-14T06:11:21.201Z,89.90
2022-10-14T06:13:11.973Z,89.90
2022-10-14T06:15:03.903Z,89.90
2022-10-14T06:16:54.606Z,89.90
2022-10-14T06:18:44.963Z,89.90
2022-10-14T06:20:36.343Z,89.90
2022-10-14T06:22:28.345Z,89.90
2022-10-14T06:24:20.278Z,89.90
2022-10-14T06:26:10.589Z,89.90
2022-10-14T06:28:05.981Z,89.90
2022-10-14T06:29:57.001Z,89.90
2022-10-14T06:31:47.438Z,89.90
2022-10-14T06:33:37.799Z,89.90
2022-10-14T06:35:28.586Z,89.90
2022-10-14T06:37:18.956Z,89.90
2022-10-14T06:39:09.826Z,89.90
2022-10-14T06:41:01.702Z,89.90
2022-10-14T06:42:52.232Z,89.90
2022-10-14T06:44:42.927Z,89.90
2022-10-14T06:46:33.670Z,89.90
2022-10-14T06:48:24.117Z,89.90
2022-10-14T06:50:15.100Z,89.90
2022-10-14T06:52:06.020Z,89.90
2022-10-14T06:53:56.860Z,89.90
2022-10-14T06:55:47.490Z,89.90
2022-10-14T06:57:39.520Z,89.90
2022-10-14T06:59:29.882Z,89.90
2022-10-14T07:01:20.458Z,89.90
2022-10-14T07:03:11.090Z,89.90
2022-10-14T07:05:01.610Z,89.90
2022-10-14T07:06:52.281Z,89.90
2022-10-14T07:08:42.613Z,89.90
2022-10-14T07:10:33.161Z,89.90
2022-10-14T07:12:24.949Z,89.90
2022-10-14T07:14:16.943Z,89.90
2022-10-14T07:16:07.308Z,89.90
2022-10-14T07:17:57.762Z,89.90
2022-10-14T07:19:48.708Z,89.90
2022-10-14T07:21:39.264Z,89.90
2022-10-14T07:23:30.752Z,89.90
2022-10-14T07:25:21.089Z,89.90
2022-10-14T07:27:11.713Z,89.90
2022-10-14T07:29:04.231Z,89.90
2022-10-14T07:31:01.309Z,89.90
2022-10-14T07:32:51.910Z,89.90
2022-10-14T07:34:42.540Z,89.90
2022-10-14T07:36:33.128Z,89.90
2022-10-14T07:38:24.229Z,89.90
2022-10-14T07:40:14.755Z,89.90
2022-10-14T07:42:05.591Z,89.90
2022-10-14T07:43:59.389Z,89.90
2022-10-14T07:45:50.059Z,89.90
2022-10-14T07:47:42.177Z,89.90
2022-10-14T07:49:32.552Z,89.90
2022-10-14T07:51:23.678Z,89.90
2022-10-14T07:53:13.980Z,89.90
2022-10-14T07:55:05.714Z,89.90
2022-10-14T07:56:56.686Z,89.90
2022-10-14T07:58:47.662Z,89.90
2022-10-14T08:00:38.015Z,89.90
2022-10-14T08:02:28.494Z,89.90
2022-10-14T08:04:20.290Z,89.90
2022-10-14T08:06:11.469Z,89.90
2022-10-14T08:08:02.097Z,89.90
2022-10-14T08:09:52.680Z,89.90
2022-10-14T08:11:43.778Z,89.90
2022-10-14T08:13:34.427Z,89.90
2022-10-14T08:15:25.238Z,89.90
2022-10-14T08:17:15.649Z,89.90
2022-10-14T08:19:13.509Z,89.90
2022-10-14T08:21:06.398Z,89.90
2022-10-14T08:22:57.122Z,89.90
2022-10-14T08:24:47.837Z,89.90
2022-10-14T08:26:39.943Z,89.90
2022-10-14T08:28:30.770Z,89.90
2022-10-14T08:30:21.704Z,89.90
2022-10-14T08:32:12.332Z,89.90
2022-10-14T08:34:02.874Z,89.90
2022-10-14T08:35:54.283Z,89.90
2022-10-14T08:37:55.208Z,89.90
2022-10-14T08:39:45.752Z,89.90
2022-10-14T08:41:55.698Z,89.90
2022-10-14T08:43:49.981Z,89.90
2022-10-14T08:45:44.784Z,89.90
2022-10-14T08:47:37.758Z,89.90
2022-10-14T08:49:33.044Z,89.90
2022-10-14T08:51:23.471Z,89.90
2022-10-14T08:53:17.831Z,89.90
2022-10-14T08:55:19.492Z,89.90
2022-10-14T08:57:14.540Z,89.90
2022-10-14T08:59:10.229Z,89.90
2022-10-14T09:01:03.564Z,89.90
2022-10-14T09:02:53.964Z,89.90
2022-10-14T09:04:44.370Z,89.90
2022-10-14T09:06:36.542Z,89.90
2022-10-14T09:08:33.505Z,89.90
2022-10-14T09:10:32.239Z,89.90
2022-10-14T09:12:26.428Z,89.90
2022-10-14T09:14:18.776Z,89.90
2022-10-14T09:16:15.317Z,89.90
2022-10-14T09:18:08.045Z,89.90
2022-10-14T09:20:04.232Z,89.90
2022-10-14T09:21:55.107Z,89.90
2022-10-14T09:23:46.969Z,89.90
2022-10-14T09:25:40.011Z,89.90
2022-10-14T09:27:30.315Z,89.90
2022-10-14T09:29:24.796Z,89.90
2022-10-14T09:31:15.177Z,89.90
2022-10-14T09:33:05.482Z,89.90
2022-10-14T09:34:57.658Z,89.90
2022-10-14T09:36:49.375Z,89.90
2022-10-14T09:38:40.087Z,89.90
2022-10-14T09:40:34.366Z,89.90
2022-10-14T09:42:27.783Z,89.90
2022-10-14T09:44:21.139Z,89.90
2022-10-14T09:46:11.699Z,89.90
2022-10-14T09:48:03.506Z,89.90
2022-10-14T09:49:54.097Z,89.90
2022-10-14T09:51:44.672Z,89.90
2022-10-14T09:53:38.158Z,89.90
2022-10-14T09:55:29.017Z,89.90
2022-10-14T09:57:21.450Z,89.90
2022-10-14T09:59:16.594Z,89.90
2022-10-14T10:01:07.163Z,89.90
2022-10-14T10:02:58.011Z,89.90
2022-10-14T10:04:49.489Z,89.90
2022-10-14T10:06:51.416Z,89.90
2022-10-14T10:08:55.552Z,89.90
2022-10-14T10:10:59.564Z,89.90
2022-10-14T10:12:53.687Z,89.90
2022-10-14T10:14:56.227Z,89.90
2022-10-14T10:16:47.398Z,89.90
2022-10-14T10:18:37.735Z,89.90
2022-10-14T10:20:29.525Z,89.90
2022-10-14T10:22:24.077Z,89.90
2022-10-14T10:24:19.331Z,89.90
2022-10-14T10:26:18.039Z,89.90
2022-10-14T10:28:16.299Z,89.90
2022-10-14T10:30:18.423Z,89.90
2022-10-14T10:32:12.557Z,89.90
2022-10-14T10:34:12.711Z,89.90
2022-10-14T10:38:16.942Z,89.90
2022-10-14T10:40:40.908Z,89.90
2022-10-14T10:42:34.814Z,89.90
2022-10-14T10:44:36.435Z,89.90
2022-10-14T10:46:42.030Z,89.90
2022-10-14T10:48:39.253Z,89.90
2022-10-14T10:50:32.136Z,89.90
2022-10-14T10:52:28.876Z,89.90
2022-10-14T10:54:29.415Z,89.90
2022-10-14T10:56:26.549Z,89.90
2022-10-14T10:58:25.026Z,89.90
2022-10-14T11:00:18.956Z,89.90
2022-10-14T11:02:37.769Z,89.90
2022-10-14T11:04:30.340Z,89.90
2022-10-14T11:06:26.222Z,89.90
2022-10-14T11:08:28.790Z,89.90
2022-10-14T11:10:20.202Z,89.90
2022-10-14T11:12:16.124Z,89.90
2022-10-14T11:14:23.882Z,89.90
2022-10-14T11:16:20.770Z,89.90
2022-10-14T11:18:15.918Z,89.90
2022-10-14T11:20:13.213Z,89.90
2022-10-14T11:22:12.211Z,89.90
2022-10-14T11:24:06.857Z,89.90
2022-10-14T11:26:00.716Z,89.90
2022-10-14T11:27:57.592Z,89.90
2022-10-14T11:30:14.108Z,89.90
2022-10-14T11:32:11.489Z,89.90
2022-10-14T11:34:17.133Z,89.90
2022-10-14T11:36:15.974Z,89.90
2022-10-14T11:38:29.623Z,89.90
2022-10-14T11:40:24.483Z,89.90
2022-10-14T11:42:32.336Z,89.90
2022-10-14T11:44:29.017Z,89.90
2022-10-14T11:46:21.585Z,89.90
2022-10-14T11:48:21.905Z,89.90
2022-10-14T11:50:16.417Z,89.90
2022-10-14T11:52:10.261Z,89.90
2022-10-14T11:54:03.741Z,89.90
2022-10-14T11:56:00.426Z,89.90
2022-10-14T11:57:52.353Z,89.90
2022-10-14T11:59:46.716Z,89.90
2022-10-14T12:01:42.431Z,89.90
2022-10-14T12:03:46.133Z,89.90
2022-10-14T12:05:39.918Z,89.90
2022-10-14T12:07:35.186Z,89.90
2022-10-14T12:09:31.246Z,89.90
2022-10-14T12:11:28.073Z,89.60
2022-10-14T12:13:22.444Z,89.90
2022-10-14T12:15:16.806Z,89.60
2022-10-14T12:17:18.394Z,89.20
2022-10-14T12:19:11.746Z,89.00
2022-10-14T12:21:11.132Z,88.70
2022-10-14T12:23:03.734Z,89.30
2022-10-14T12:24:55.550Z,88.30
2022-10-14T12:26:52.193Z,88.70
2022-10-14T12:28:43.161Z,88.60
2022-10-14T12:30:36.457Z,88.60
2022-10-14T12:32:28.417Z,86.90
2022-10-14T12:34:33.230Z,88.30
2022-10-14T12:36:32.936Z,88.00
2022-10-14T12:38:23.815Z,88.00
2022-10-14T12:40:25.403Z,87.70
2022-10-14T12:42:16.448Z,87.10
2022-10-14T12:44:14.195Z,86.90
2022-10-14T12:46:12.321Z,86.80
2022-10-14T12:48:12.314Z,87.20
2022-10-14T12:50:06.254Z,87.40
2022-10-14T12:51:59.015Z,86.20
2022-10-14T12:53:53.063Z,84.90
2022-10-14T12:55:49.167Z,85.10
2022-10-14T12:57:42.273Z,85.30
2022-10-14T12:59:34.067Z,84.50
2022-10-14T13:01:24.541Z,83.80
2022-10-14T13:03:19.794Z,83.90
2022-10-14T13:05:24.985Z,84.40
2022-10-14T13:07:47.343Z,82.20
2022-10-14T13:09:38.232Z,82.60
2022-10-14T13:11:28.620Z,82.10
2022-10-14T13:13:47.630Z,81.60
2022-10-14T13:15:59.219Z,81.80
2022-10-14T13:17:49.421Z,81.00
2022-10-14T13:19:42.091Z,81.80
2022-10-14T13:21:53.477Z,81.00
2022-10-14T13:23:45.325Z,81.00
2022-10-14T13:25:36.016Z,80.70
2022-10-14T13:27:33.764Z,81.30
2022-10-14T13:29:30.661Z,80.50
2022-10-14T13:31:24.367Z,80.50
2022-10-14T13:33:19.089Z,80.40
2022-10-14T13:35:16.351Z,80.20
2022-10-14T13:37:27.835Z,80.70
2022-10-14T13:39:18.569Z,80.50
2022-10-14T13:41:14.622Z,80.20
2022-10-14T13:43:08.498Z,79.90
2022-10-14T13:45:06.772Z,80.10
2022-10-14T13:46:57.874Z,80.30
2022-10-14T13:48:49.878Z,78.30
2022-10-14T13:50:40.499Z,78.10
2022-10-14T13:52:33.304Z,78.60
2022-10-14T13:54:24.825Z,78.40
2022-10-14T13:56:21.837Z,78.40
2022-10-14T13:58:14.046Z,78.50
2022-10-14T14:00:42.030Z,78.10
2022-10-14T14:02:34.201Z,77.60
2022-10-14T14:04:26.921Z,78.60
2022-10-14T14:06:19.491Z,78.80
2022-10-14T14:10:27.593Z,78.90
2022-10-14T14:12:19.927Z,78.00
2022-10-14T14:14:17.197Z,78.10
2022-10-14T14:16:18.374Z,77.70
2022-10-14T14:18:33.955Z,78.00
2022-10-14T14:20:33.588Z,77.70
2022-10-14T14:22:25.924Z,77.70
2022-10-14T14:24:19.268Z,76.80
2022-10-14T14:26:18.800Z,76.70
2022-10-14T14:28:13.461Z,76.30
2022-10-14T14:30:04.785Z,76.30
2022-10-14T14:32:11.539Z,76.80
2022-10-14T14:34:02.050Z,76.80
2022-10-14T14:35:54.416Z,76.60
2022-10-14T14:37:55.294Z,76.70
2022-10-14T14:39:57.665Z,76.10
2022-10-14T14:41:50.783Z,76.50
2022-10-14T14:43:47.322Z,76.10
2022-10-14T14:45:44.670Z,76.10
2022-10-14T14:47:35.166Z,76.10
2022-10-14T14:49:27.255Z,76.30
2022-10-14T14:51:17.996Z,75.50
2022-10-14T14:53:11.774Z,75.20
2022-10-14T14:55:03.711Z,75.40
2022-10-14T14:57:00.793Z,75.20
2022-10-14T14:58:52.602Z,76.00
2022-10-14T15:00:44.986Z,75.80
2022-10-14T15:02:35.381Z,76.00
2022-10-14T15:04:26.877Z,76.10
2022-10-14T15:06:18.124Z,75.60
2022-10-14T15:08:16.347Z,75.80
2022-10-14T15:10:19.299Z,76.30
2022-10-14T15:12:15.167Z,76.70
2022-10-14T15:14:05.806Z,76.30
2022-10-14T15:15:56.132Z,76.70
2022-10-14T15:17:46.602Z,76.60
2022-10-14T15:19:38.655Z,76.70
2022-10-14T15:21:29.124Z,77.10
2022-10-14T15:23:43.436Z,77.40
2022-10-14T15:25:36.333Z,77.70
2022-10-14T15:27:31.528Z,78.00
2022-10-14T15:29:22.289Z,77.20
2022-10-14T15:31:15.321Z,77.00
2022-10-14T15:33:14.194Z,76.60
2022-10-14T15:35:05.300Z,77.20
2022-10-14T15:36:56.490Z,77.20
2022-10-14T15:38:46.636Z,77.20
2022-10-14T15:40:38.500Z,77.30
2022-10-14T15:42:28.952Z,77.50
2022-10-14T15:44:19.350Z,77.70
2022-10-14T15:46:12.659Z,77.70
2022-10-14T15:48:05.411Z,78.20
2022-10-14T15:49:57.487Z,78.60
2022-10-14T15:51:48.228Z,78.70
2022-10-14T15:53:38.520Z,79.00
2022-10-14T15:55:30.185Z,79.40
2022-10-14T15:57:22.303Z,79.70
2022-10-14T15:59:12.794Z,79.60
2022-10-14T16:01:03.889Z,79.20
2022-10-14T16:02:55.601Z,79.10
2022-10-14T16:05:07.293Z,79.60
2022-10-14T16:06:57.556Z,79.20
2022-10-14T16:08:48.699Z,79.50
2022-10-14T16:10:39.735Z,79.30
2022-10-14T16:12:31.781Z,79.90
2022-10-14T16:14:22.376Z,79.60
2022-10-14T16:16:13.232Z,79.40
2022-10-14T16:18:03.867Z,79.90
2022-10-14T16:19:54.267Z,79.60
2022-10-14T16:21:45.032Z,79.70
2022-10-14T16:23:35.417Z,80.10
2022-10-14T16:25:32.490Z,80.10
2022-10-14T16:27:22.950Z,81.00
2022-10-14T16:29:15.396Z,80.30
2022-10-14T16:31:06.303Z,80.60
2022-10-14T16:32:57.611Z,80.10
2022-10-14T16:34:47.916Z,80.10
2022-10-14T16:36:39.226Z,80.50
2022-10-14T16:38:29.874Z,80.30
2022-10-14T16:40:20.247Z,80.10
2022-10-14T16:42:10.761Z,80.20
2022-10-14T16:44:01.595Z,80.40
2022-10-14T16:45:57.295Z,80.40
2022-10-14T16:47:48.105Z,80.50
2022-10-14T16:49:39.499Z,80.50
2022-10-14T16:51:29.845Z,80.50
2022-10-14T16:53:21.980Z,80.70
2022-10-14T16:55:12.098Z,80.40
2022-10-14T16:57:03.381Z,80.20
2022-10-14T16:58:54.222Z,80.30
2022-10-14T17:00:45.236Z,80.50
2022-10-14T17:02:38.123Z,80.40
2022-10-14T17:04:29.108Z,80.80
2022-10-14T17:06:23.922Z,80.40
2022-10-14T17:08:14.872Z,80.70
2022-10-14T17:10:06.271Z,80.50
2022-10-14T17:11:56.670Z,81.00
2022-10-14T17:13:47.318Z,81.10
2022-10-14T17:15:37.887Z,81.60
2022-10-14T17:17:28.713Z,82.60
2022-10-14T17:19:20.472Z,82.00
2022-10-14T17:21:11.744Z,81.60
2022-10-14T17:23:05.448Z,81.40
2022-10-14T17:24:58.265Z,81.80
2022-10-14T17:26:48.468Z,81.90
2022-10-14T17:28:39.311Z,82.00
2022-10-14T17:30:38.307Z,81.60
2022-10-14T17:32:28.750Z,81.20
2022-10-14T17:34:21.434Z,81.20
2022-10-14T17:36:16.358Z,81.80
2022-10-14T17:38:06.682Z,82.90
2022-10-14T17:39:57.360Z,82.70
2022-10-14T17:41:47.906Z,82.40
2022-10-14T17:43:38.818Z,82.30
2022-10-14T17:45:30.414Z,82.10
2022-10-14T17:47:21.014Z,82.10
2022-10-14T17:49:12.066Z,81.90
2022-10-14T17:51:04.255Z,82.10
2022-10-14T17:52:54.708Z,82.20
2022-10-14T17:54:45.270Z,82.10
2022-10-14T17:56:37.323Z,82.40
2022-10-14T17:58:38.017Z,82.50
2022-10-14T18:00:28.754Z,82.60
2022-10-14T18:02:20.269Z,83.40
2022-10-14T18:04:11.281Z,84.50
2022-10-14T18:06:10.270Z,83.60
2022-10-14T18:08:00.777Z,83.40
2022-10-14T18:09:51.214Z,83.40
2022-10-14T18:13:56.161Z,83.10
2022-10-14T18:15:46.577Z,83.30
2022-10-14T18:17:36.953Z,83.80
2022-10-14T18:19:30.667Z,83.50
2022-10-14T18:21:23.297Z,83.50
2022-10-14T18:23:14.671Z,83.40
2022-10-14T18:25:06.730Z,83.40
2022-10-14T18:26:57.629Z,83.60
2022-10-14T18:28:50.357Z,84.00
2022-10-14T18:30:40.856Z,84.00
2022-10-14T18:32:31.609Z,83.80
2022-10-14T18:34:22.704Z,83.90
2022-10-14T18:36:15.910Z,83.90
2022-10-14T18:38:07.535Z,83.90
2022-10-14T18:39:58.563Z,83.90
2022-10-14T18:41:49.016Z,83.50
2022-10-14T18:43:40.341Z,83.30
2022-10-14T18:45:33.835Z,83.80
2022-10-14T18:47:28.637Z,83.90
2022-10-14T18:49:18.874Z,83.90
2022-10-14T18:51:10.342Z,83.90
2022-10-14T18:53:01.363Z,84.40
2022-10-14T18:54:53.683Z,84.50
2022-10-14T18:56:44.465Z,84.10
2022-10-14T18:58:35.597Z,83.70
2022-10-14T19:00:26.413Z,83.90
2022-10-14T19:02:19.118Z,83.50
2022-10-14T19:04:14.480Z,83.40
2022-10-14T19:06:07.013Z,83.80
2022-10-14T19:07:57.795Z,83.70
2022-10-14T19:09:48.142Z,83.60
2022-10-14T19:11:40.183Z,83.60
2022-10-14T19:13:30.855Z,83.70
2022-10-14T19:15:21.608Z,84.10
2022-10-14T19:17:16.541Z,83.70
2022-10-14T19:19:09.156Z,83.70
2022-10-14T19:21:06.490Z,84.20
2022-10-14T19:22:56.993Z,84.30
2022-10-14T19:24:49.715Z,84.30
2022-10-14T19:26:44.442Z,84.10
2022-10-14T19:28:35.200Z,84.40
2022-10-14T19:30:26.232Z,84.00
2022-10-14T19:32:16.844Z,84.20
2022-10-14T19:34:09.985Z,84.70
2022-10-14T19:36:01.967Z,84.70
2022-10-14T19:37:52.730Z,84.80
2022-10-14T19:39:43.243Z,84.90
2022-10-14T19:41:35.788Z,84.70
2022-10-14T19:43:27.792Z,84.90
2022-10-14T19:45:18.249Z,85.20
2022-10-14T19:47:08.810Z,85.20
2022-10-14T19:49:01.044Z,84.80
2022-10-14T19:50:51.300Z,85.00
2022-10-14T19:52:45.113Z,85.00
2022-10-14T19:54:35.669Z,84.70
2022-10-14T19:56:27.024Z,83.80
2022-10-14T19:58:17.373Z,83.90
2022-10-14T20:00:10.985Z,84.20
2022-10-14T20:02:01.428Z,83.90
2022-10-14T20:03:52.648Z,84.00
2022-10-14T20:05:44.563Z,84.00
2022-10-14T20:07:34.806Z,84.20
2022-10-14T20:09:27.351Z,84.50
2022-10-14T20:11:27.280Z,84.60
2022-10-14T20:13:18.041Z,84.80
2022-10-14T20:15:11.478Z,84.50
2022-10-14T20:17:03.358Z,84.20
2022-10-14T20:18:55.329Z,83.80
2022-10-14T20:20:47.053Z,84.00
2022-10-14T20:22:37.747Z,84.00
2022-10-14T20:24:32.048Z,84.40
2022-10-14T20:28:16.883Z,85.10
2022-10-14T20:30:08.957Z,85.10
2022-10-14T20:32:00.750Z,85.20
2022-10-14T20:33:51.610Z,85.40
2022-10-14T20:35:42.168Z,85.10
2022-10-14T20:37:33.160Z,84.90
2022-10-14T20:39:27.438Z,85.00
2022-10-14T20:41:19.793Z,85.50
2022-10-14T20:43:10.417Z,84.50
2022-10-14T20:45:01.459Z,84.60
2022-10-14T20:46:53.219Z,84.80
2022-10-14T20:48:45.424Z,85.30
2022-10-14T20:50:35.791Z,85.50
2022-10-14T20:52:26.477Z,85.00
2022-10-14T20:54:17.289Z,85.20
2022-10-14T20:56:09.943Z,85.30
2022-10-14T20:58:00.606Z,85.50
2022-10-14T20:59:50.854Z,85.00
2022-10-14T21:01:41.656Z,84.50
2022-10-14T21:03:31.984Z,84.40
2022-10-14T21:05:24.326Z,84.00
2022-10-14T21:07:15.122Z,83.30
2022-10-14T21:09:05.876Z,83.70
2022-10-14T21:10:59.531Z,84.20
2022-10-14T21:12:49.829Z,84.40
2022-10-14T21:14:40.350Z,84.10
2022-10-14T21:16:31.985Z,83.80
2022-10-14T21:18:23.105Z,83.60
2022-10-14T21:20:13.397Z,83.20
2022-10-14T21:22:05.057Z,83.10
2022-10-14T21:23:55.665Z,82.80
2022-10-14T21:25:53.961Z,82.70
2022-10-14T21:27:44.720Z,82.60
2022-10-14T21:29:35.033Z,82.60
2022-10-14T21:31:25.494Z,83.40
2022-10-14T21:33:16.159Z,84.20
2022-10-14T21:35:07.560Z,84.20
2022-10-14T21:36:58.352Z,84.40
2022-10-14T21:38:50.824Z,84.40
2022-10-14T21:40:41.155Z,83.80
2022-10-14T21:42:31.416Z,84.40
2022-10-14T21:44:22.013Z,84.20
2022-10-14T21:46:14.163Z,84.50
2022-10-14T21:48:05.329Z,84.60
2022-10-14T21:49:56.354Z,84.40
2022-10-14T21:51:46.677Z,84.20
2022-10-14T21:53:39.524Z,84.90
2022-10-14T21:55:31.257Z,84.70
2022-10-14T21:57:21.954Z,84.60
2022-10-14T21:59:12.624Z,84.20
2022-10-14T22:01:05.388Z,84.20
2022-10-14T22:02:55.933Z,84.20
2022-10-14T22:04:46.684Z,84.20
2022-10-14T22:06:37.208Z,84.40
2022-10-14T22:08:31.183Z,84.40
2022-10-14T22:10:21.470Z,84.20
2022-10-14T22:12:13.526Z,84.70
2022-10-14T22:14:05.853Z,84.70
2022-10-14T22:15:56.366Z,84.30
2022-10-14T22:17:46.766Z,84.50
2022-10-14T22:19:36.987Z,84.60
2022-10-14T22:21:29.258Z,84.10
2022-10-14T22:23:19.865Z,83.90
2022-10-14T22:25:10.766Z,83.70
2022-10-14T22:27:01.075Z,83.60
2022-10-14T22:28:58.645Z,83.60
2022-10-14T22:30:49.450Z,83.50
2022-10-14T22:32:39.790Z,83.40
2022-10-14T22:34:30.041Z,83.20
2022-10-14T22:36:23.881Z,83.10
2022-10-14T22:38:14.658Z,83.60
2022-10-14T22:40:05.991Z,84.00
2022-10-14T22:41:56.736Z,84.00
2022-10-14T22:43:47.790Z,84.00
2022-10-14T22:45:39.743Z,83.80
2022-10-14T22:47:30.043Z,84.00
2022-10-14T22:49:20.740Z,84.20
2022-10-14T22:51:13.293Z,84.00
2022-10-14T22:53:03.812Z,83.60
2022-10-14T22:54:54.762Z,83.70
2022-10-14T22:56:45.257Z,83.70
2022-10-14T22:58:35.812Z,84.00
2022-10-14T23:00:26.656Z,84.20
2022-10-14T23:02:19.664Z,84.00
2022-10-14T23:04:11.075Z,84.20
2022-10-14T23:06:02.863Z,84.50
2022-10-14T23:07:53.502Z,84.20
2022-10-14T23:09:43.827Z,84.70
2022-10-14T23:11:34.239Z,84.80
2022-10-14T23:13:24.627Z,84.80
2022-10-14T23:15:14.972Z,84.90
2022-10-14T23:17:05.654Z,84.80
2022-10-14T23:18:58.059Z,84.20
2022-10-14T23:20:48.205Z,85.20
2022-10-14T23:22:39.126Z,85.20
2022-10-14T23:24:29.866Z,85.30
2022-10-14T23:26:21.883Z,85.10
2022-10-14T23:28:12.431Z,85.20
2022-10-14T23:30:02.947Z,85.20
2022-10-14T23:31:53.214Z,85.60
2022-10-14T23:33:43.749Z,85.70
2022-10-14T23:35:35.612Z,85.70
2022-10-14T23:37:26.349Z,85.30
2022-10-14T23:39:16.636Z,85.00
2022-10-14T23:41:08.553Z,85.40
2022-10-14T23:42:59.164Z,85.70
2022-10-14T23:44:49.655Z,85.90
2022-10-14T23:46:40.004Z,86.00
2022-10-14T23:48:30.238Z,86.20
2022-10-14T23:50:20.938Z,86.20
2022-10-14T23:52:13.111Z,86.30
2022-10-14T23:54:04.110Z,85.90
2022-10-14T23:55:55.531Z,86.00
2022-10-14T23:57:45.885Z,86.20
2022-10-14T23:59:36.455Z,85.80
